Time;durP1;ratioP1;P1;durP2;ratioP2;P2;SDS_P1;SDS_P2;PMS_P1;PMS_P2;Temp;Humidity;BMP_temperature;BMP_pressure;BME280_temperature;BME280_humidity;BME280_pressure;Samples;Min_cycle;Max_cycle;Signal;HPM_P1;HPM_P2
2022/01/07 00:01:06;;;;;;;;;;;102.90;2227.20;;;;;;4967232;28;20001;-74
2022/01/07 00:03:32;;;;;;;;;;;102.80;2227.20;;;;;;4958984;28;20243;-74
2022/01/07 00:05:59;;;;;;;;;;;102.70;2227.20;;;;;;4967358;28;19946;-74
2022/01/07 00:08:25;;;;;;;;;;;128.20;2252.80;;;;;;4966572;28;19969;-74
2022/01/07 00:10:51;;;;;;;;;;;102.90;2227.20;;;;;;4966371;28;20267;-74
2022/01/07 00:13:16;;;;;;;;;;;103.00;2227.20;;;;;;4966715;28;19922;-74
2022/01/07 00:15:42;;;;;;;;;;;102.90;2227.20;;;;;;4966336;28;19989;-75
2022/01/07 00:18:07;;;;;;;;;;;103.00;2227.20;;;;;;4966819;28;20343;-75
2022/01/07 00:20:34;;;;;;;;;;;103.00;2227.20;;;;;;4968392;28;20059;-75
2022/01/07 00:22:59;;;;;;;;;;;103.00;2227.20;;;;;;4969286;28;19925;-75
2022/01/07 00:25:25;;;;;;;;;;;103.00;2227.20;;;;;;4967594;28;19993;-75
2022/01/07 00:27:51;;;;;;;;;;;103.30;2227.20;;;;;;4965142;28;19983;-75
2022/01/07 00:30:17;;;;;;;;;;;128.10;2252.80;;;;;;4950585;28;19910;-75
2022/01/07 00:32:43;;;;;;;;;;;103.20;2227.20;;;;;;4965706;28;19906;-74
2022/01/07 00:35:09;;;;;;;;;;;103.30;2227.20;;;;;;4950553;28;19913;-75
2022/01/07 00:37:35;;;;;;;;;;;103.20;2227.20;;;;;;4948726;28;19906;-75
2022/01/07 00:40:02;;;;;;;;;;;103.30;2227.20;;;;;;4967096;28;19982;-75
2022/01/07 00:42:27;;;;;;;;;;;128.30;2252.80;;;;;;4967132;28;20369;-75
2022/01/07 00:44:53;;;;;;;;;;;128.10;2252.80;;;;;;4965894;28;20329;-74
2022/01/07 00:47:19;;;;;;;;;;;128.10;2252.80;;;;;;4965408;28;19961;-75
2022/01/07 00:49:44;;;;;;;;;;;128.10;2252.80;;;;;;4964226;28;20266;-75
2022/01/07 00:52:10;;;;;;;;;;;128.10;2252.80;;;;;;4961452;28;19922;-75
2022/01/07 00:54:35;;;;;;;;;;;128.20;2252.80;;;;;;4966301;28;19917;-75
2022/01/07 00:57:01;;;;;;;;;;;128.40;2252.80;;;;;;4965434;28;20255;-75
2022/01/07 00:59:27;;;;;;;;;;;128.40;2252.80;;;;;;4967267;28;20346;-74
2022/01/07 01:01:52;;;;;;;;;;;128.50;2252.80;;;;;;4965773;28;19950;-75
2022/01/07 01:04:18;;;;;;;;;;;128.60;2252.80;;;;;;4955353;28;19925;-74
2022/01/07 01:06:51;;;;;;;;;;;128.30;2252.80;;;;;;4965266;28;20009;-75
2022/01/07 01:09:22;;;;;;;;;;;128.30;2252.80;;;;;;4965284;28;19912;-75
2022/01/07 01:11:48;;;;;;;;;;;128.10;2252.80;;;;;;4966900;28;20364;-75
2022/01/07 01:14:14;;;;;;;;;;;128.00;2252.80;;;;;;4970810;28;19910;-74
2022/01/07 01:16:39;;;;;;;;;;;103.30;2227.20;;;;;;4958939;28;19956;-74
2022/01/07 01:19:06;;;;;;;;;;;128.00;2252.80;;;;;;4973688;28;20420;-74
2022/01/07 01:21:32;;;;;;;;;;;128.10;2252.80;;;;;;4961973;28;20298;-75
2022/01/07 01:23:58;;;;;;;;;;;128.20;2252.80;;;;;;4973645;28;19941;-75
2022/01/07 01:26:23;;;;;;;;;;;128.30;2252.80;;;;;;4976219;28;19944;-75
2022/01/07 01:28:49;;;;;;;;;;;128.40;2252.80;;;;;;4976097;28;19918;-75
2022/01/07 01:31:16;;;;;;;;;;;128.40;2252.80;;;;;;4976226;28;19910;-75
2022/01/07 01:33:43;;;;;;;;;;;128.40;2252.80;;;;;;4974940;28;19906;-75
2022/01/07 01:36:09;;;;;;;;;;;128.30;2252.80;;;;;;4975934;28;19914;-75
2022/01/07 01:38:35;;;;;;;;;;;128.30;2252.80;;;;;;4975654;28;19906;-75
2022/01/07 01:41:01;;;;;;;;;;;128.10;2252.80;;;;;;4975367;28;19914;-74
2022/01/07 01:43:26;;;;;;;;;;;128.30;2252.80;;;;;;4975501;28;20275;-75
2022/01/07 01:45:52;;;;;;;;;;;103.00;2227.20;;;;;;4942140;29;19914;-75
2022/01/07 01:48:19;;;;;;;;;;;102.80;2227.20;;;;;;4955180;29;19911;-75
2022/01/07 01:50:47;;;;;;;;;;;103.10;2227.20;;;;;;4939047;29;19946;-75
2022/01/07 01:53:13;;;;;;;;;;;103.30;2227.20;;;;;;4956301;29;19918;-76
2022/01/07 01:55:39;;;;;;;;;;;128.00;2252.80;;;;;;4956475;29;19913;-75
2022/01/07 01:58:05;;;;;;;;;;;128.10;2252.80;;;;;;4954839;29;20001;-75
2022/01/07 02:00:31;;;;;;;;;;;128.30;2252.80;;;;;;4956274;29;19969;-75
2022/01/07 02:02:56;;;;;;;;;;;128.30;2252.80;;;;;;4939166;29;19910;-75
2022/01/07 02:05:22;;;;;;;;;;;128.30;2252.80;;;;;;4956250;29;20386;-75
2022/01/07 02:07:48;;;;;;;;;;;128.30;2252.80;;;;;;4956382;29;19929;-76
2022/01/07 02:10:15;;;;;;;;;;;128.30;2252.80;;;;;;4938774;29;19914;-75
2022/01/07 02:12:41;;;;;;;;;;;128.10;2252.80;;;;;;4938805;29;19913;-76
2022/01/07 02:15:07;;;;;;;;;;;128.10;2252.80;;;;;;4955700;28;19906;-75
2022/01/07 02:17:33;;;;;;;;;;;128.20;2252.80;;;;;;4955875;29;19910;-76
2022/01/07 02:19:59;;;;;;;;;;;128.00;2252.80;;;;;;4938647;29;19981;-75
2022/01/07 02:22:24;;;;;;;;;;;103.30;2227.20;;;;;;4960421;28;19914;-76
2022/01/07 02:24:51;;;;;;;;;;;103.00;2227.20;;;;;;4975656;28;19929;-75
2022/01/07 02:27:17;;;;;;;;;;;103.00;2227.20;;;;;;4975220;28;19953;-76
2022/01/07 02:29:44;;;;;;;;;;;103.10;2227.20;;;;;;4974988;28;19964;-75
2022/01/07 02:32:10;;;;;;;;;;;103.30;2227.20;;;;;;4957316;28;19910;-76
2022/01/07 02:34:35;;;;;;;;;;;103.30;2227.20;;;;;;4975176;28;19908;-75
2022/01/07 02:37:01;;;;;;;;;;;103.30;2227.20;;;;;;4957430;28;19906;-76
2022/01/07 02:39:27;;;;;;;;;;;103.30;2227.20;;;;;;4974764;28;20370;-76
2022/01/07 02:41:53;;;;;;;;;;;103.30;2227.20;;;;;;4975012;28;19914;-76
2022/01/07 02:44:18;;;;;;;;;;;103.10;2227.20;;;;;;4953550;29;19910;-75
2022/01/07 02:46:45;;;;;;;;;;;103.10;2227.20;;;;;;4955707;29;19911;-75
2022/01/07 02:49:12;;;;;;;;;;;103.20;2227.20;;;;;;4955555;28;20365;-75
2022/01/07 02:51:38;;;;;;;;;;;103.20;2227.20;;;;;;4955028;28;20370;-76
2022/01/07 02:54:04;;;;;;;;;;;103.30;2227.20;;;;;;4955428;29;19948;-76
2022/01/07 02:56:30;;;;;;;;;;;103.20;2227.20;;;;;;4938420;29;19989;-75
2022/01/07 02:58:55;;;;;;;;;;;103.20;2227.20;;;;;;4938425;29;19929;-76
2022/01/07 03:01:21;;;;;;;;;;;103.20;2227.20;;;;;;4955365;29;19921;-76
2022/01/07 03:03:46;;;;;;;;;;;103.20;2227.20;;;;;;4953870;29;20000;-76
2022/01/07 03:06:12;;;;;;;;;;;103.00;2227.20;;;;;;4938259;29;20286;-75
2022/01/07 03:08:38;;;;;;;;;;;103.10;2227.20;;;;;;4955482;29;19912;-75
2022/01/07 03:11:03;;;;;;;;;;;103.00;2227.20;;;;;;4938004;29;20004;-75
2022/01/07 03:13:29;;;;;;;;;;;102.80;2227.20;;;;;;4955274;28;19917;-75
2022/01/07 03:15:54;;;;;;;;;;;102.90;2227.20;;;;;;4955396;29;19921;-76
2022/01/07 03:18:20;;;;;;;;;;;103.00;2227.20;;;;;;4938509;29;20429;-76
2022/01/07 03:20:46;;;;;;;;;;;102.90;2227.20;;;;;;4955127;29;19942;-76
2022/01/07 03:23:12;;;;;;;;;;;103.00;2227.20;;;;;;4948771;28;19914;-76
2022/01/07 03:25:39;;;;;;;;;;;102.90;2227.20;;;;;;4957279;28;19906;-76
2022/01/07 03:28:04;;;;;;;;;;;102.90;2227.20;;;;;;4957174;28;20008;-76
2022/01/07 03:30:30;;;;;;;;;;;102.90;2227.20;;;;;;4957172;28;20054;-76
2022/01/07 03:32:56;;;;;;;;;;;102.90;2227.20;;;;;;4973337;28;19945;-75
2022/01/07 03:35:21;;;;;;;;;;;103.10;2227.20;;;;;;4974388;28;19953;-75
2022/01/07 03:37:49;;;;;;;;;;;102.90;2227.20;;;;;;4974537;28;19910;-75
2022/01/07 03:40:15;;;;;;;;;;;102.90;2227.20;;;;;;4973994;28;19918;-75
2022/01/07 03:42:41;;;;;;;;;;;102.80;2227.20;;;;;;4974480;28;19914;-75
2022/01/07 03:45:07;;;;;;;;;;;102.70;2227.20;;;;;;4963713;28;19913;-75
2022/01/07 03:47:32;;;;;;;;;;;102.70;2227.20;;;;;;4955116;29;20278;-76
2022/01/07 03:49:58;;;;;;;;;;;102.70;2227.20;;;;;;4937859;29;19973;-76
2022/01/07 03:52:24;;;;;;;;;;;102.60;2227.20;;;;;;4954951;29;19911;-76
2022/01/07 03:54:50;;;;;;;;;;;102.60;2227.20;;;;;;4937403;29;19917;-75
2022/01/07 03:57:17;;;;;;;;;;;102.50;2227.20;;;;;;4955064;29;19906;-75
2022/01/07 03:59:43;;;;;;;;;;;102.60;2227.20;;;;;;4955019;29;20387;-75
2022/01/07 04:02:08;;;;;;;;;;;102.60;2227.20;;;;;;4937867;28;19997;-75
2022/01/07 04:04:34;;;;;;;;;;;102.50;2227.20;;;;;;4958571;29;20323;-75
2022/01/07 04:06:59;;;;;;;;;;;102.40;2227.20;;;;;;4958463;29;19910;-75
2022/01/07 04:09:25;;;;;;;;;;;102.40;2227.20;;;;;;4958241;29;19945;-75
2022/01/07 04:11:52;;;;;;;;;;;102.50;2227.20;;;;;;4958292;29;20351;-75
2022/01/07 04:14:17;;;;;;;;;;;102.50;2227.20;;;;;;4958036;28;20393;-75
2022/01/07 04:16:43;;;;;;;;;;;102.40;2227.20;;;;;;4958803;29;19906;-75
2022/01/07 04:19:09;;;;;;;;;;;102.50;2227.20;;;;;;4958080;28;19906;-74
2022/01/07 04:21:34;;;;;;;;;;;102.50;2227.20;;;;;;4974308;28;19922;-75
2022/01/07 04:24:00;;;;;;;;;;;102.40;2227.20;;;;;;4977538;28;19906;-75
2022/01/07 04:26:25;;;;;;;;;;;102.50;2227.20;;;;;;4977472;28;19913;-76
2022/01/07 04:28:51;;;;;;;;;;;102.40;2227.20;;;;;;4977561;28;19907;-75
2022/01/07 04:31:17;;;;;;;;;;;102.40;2227.20;;;;;;4977461;28;20318;-75
2022/01/07 04:33:42;;;;;;;;;;;77.70;2227.20;;;;;;4977444;28;19910;-75
2022/01/07 04:36:08;;;;;;;;;;;102.40;2227.20;;;;;;4977475;28;19906;-74
2022/01/07 04:38:34;;;;;;;;;;;102.40;2227.20;;;;;;4977236;28;20346;-74
2022/01/07 04:40:59;;;;;;;;;;;77.70;2227.20;;;;;;4977061;28;19918;-75
2022/01/07 04:43:25;;;;;;;;;;;102.40;2227.20;;;;;;4959883;28;20462;-74
2022/01/07 04:45:51;;;;;;;;;;;102.40;2227.20;;;;;;4958338;28;19906;-74
2022/01/07 04:48:17;;;;;;;;;;;102.40;2227.20;;;;;;4957800;29;19906;-75
2022/01/07 04:50:43;;;;;;;;;;;102.40;2227.20;;;;;;4957747;29;19911;-75
2022/01/07 04:53:09;;;;;;;;;;;102.40;2227.20;;;;;;4957823;29;19917;-74
2022/01/07 04:55:38;;;;;;;;;;;77.60;2227.20;;;;;;4957517;29;20359;-75
2022/01/07 04:58:04;;;;;;;;;;;77.70;2227.20;;;;;;4957625;29;19906;-75
2022/01/07 05:00:30;;;;;;;;;;;77.60;2227.20;;;;;;4957561;29;19918;-75
2022/01/07 05:02:56;;;;;;;;;;;77.70;2227.20;;;;;;4939889;29;19907;-75
2022/01/07 05:05:21;;;;;;;;;;;77.70;2227.20;;;;;;4940256;29;20343;-75
2022/01/07 05:07:47;;;;;;;;;;;77.70;2227.20;;;;;;4940348;29;20351;-74
2022/01/07 05:10:14;;;;;;;;;;;77.50;2227.20;;;;;;4940085;29;19906;-74
2022/01/07 05:12:39;;;;;;;;;;;77.50;2227.20;;;;;;4957312;29;19910;-75
2022/01/07 05:15:05;;;;;;;;;;;77.50;2227.20;;;;;;4956376;28;19913;-75
2022/01/07 05:17:31;;;;;;;;;;;77.30;2227.20;;;;;;4939927;29;19907;-75
2022/01/07 05:19:57;;;;;;;;;;;77.50;2227.20;;;;;;4939777;28;20271;-75
2022/01/07 05:22:23;;;;;;;;;;;77.50;2227.20;;;;;;4940095;29;19922;-74
2022/01/07 05:24:48;;;;;;;;;;;77.40;2227.20;;;;;;4939964;29;19906;-75
2022/01/07 05:27:14;;;;;;;;;;;77.60;2227.20;;;;;;4957021;29;19907;-75
2022/01/07 05:29:40;;;;;;;;;;;77.70;2227.20;;;;;;4957107;29;19916;-75
2022/01/07 05:32:05;;;;;;;;;;;77.70;2227.20;;;;;;4939406;29;20390;-75
2022/01/07 05:34:31;;;;;;;;;;;77.60;2227.20;;;;;;4956898;29;20248;-75
2022/01/07 05:36:57;;;;;;;;;;;77.70;2227.20;;;;;;4956855;29;20418;-74
2022/01/07 05:39:23;;;;;;;;;;;77.70;2227.20;;;;;;4963036;28;19922;-74
2022/01/07 05:41:48;;;;;;;;;;;77.70;2227.20;;;;;;4976225;28;20347;-75
2022/01/07 05:44:14;;;;;;;;;;;77.70;2227.20;;;;;;4955462;28;19952;-74
2022/01/07 05:46:40;;;;;;;;;;;77.70;2227.20;;;;;;4956632;29;19914;-75
2022/01/07 05:49:05;;;;;;;;;;;77.70;2227.20;;;;;;4955317;28;20032;-75
2022/01/07 05:51:31;;;;;;;;;;;77.50;2227.20;;;;;;4956710;29;19916;-74
2022/01/07 05:53:56;;;;;;;;;;;77.60;2227.20;;;;;;4956587;29;19907;-75
2022/01/07 05:56:22;;;;;;;;;;;77.60;2227.20;;;;;;4956417;29;20382;-75
2022/01/07 05:58:47;;;;;;;;;;;77.60;2227.20;;;;;;4955432;29;19910;-75
2022/01/07 06:01:13;;;;;;;;;;;77.50;2227.20;;;;;;4956504;29;19915;-75
2022/01/07 06:03:39;;;;;;;;;;;77.60;2227.20;;;;;;4956406;29;19910;-75
2022/01/07 06:06:05;;;;;;;;;;;77.50;2227.20;;;;;;4955166;29;19977;-75
2022/01/07 06:08:30;;;;;;;;;;;77.40;2227.20;;;;;;4956383;29;20252;-75
2022/01/07 06:10:56;;;;;;;;;;;77.40;2227.20;;;;;;4956321;29;19907;-75
2022/01/07 06:13:21;;;;;;;;;;;77.40;2227.20;;;;;;4956354;29;20397;-75
2022/01/07 06:15:47;;;;;;;;;;;77.20;2227.20;;;;;;4938732;29;19915;-75
2022/01/07 06:18:13;;;;;;;;;;;76.90;2227.20;;;;;;4956301;29;20270;-75
2022/01/07 06:20:38;;;;;;;;;;;77.10;2227.20;;;;;;4955842;28;19923;-75
2022/01/07 06:23:04;;;;;;;;;;;77.00;2227.20;;;;;;4956179;29;19983;-74
2022/01/07 06:25:29;;;;;;;;;;;76.80;2227.20;;;;;;4955755;28;19910;-75
2022/01/07 06:27:55;;;;;;;;;;;76.80;2227.20;;;;;;4955444;29;19906;-74
2022/01/07 06:30:21;;;;;;;;;;;76.80;2227.20;;;;;;4956045;29;19914;-74
2022/01/07 06:32:46;;;;;;;;;;;76.90;2227.20;;;;;;4938832;29;19929;-75
2022/01/07 06:35:12;;;;;;;;;;;77.00;2227.20;;;;;;4955902;28;20005;-75
2022/01/07 06:37:37;;;;;;;;;;;76.90;2227.20;;;;;;4955614;28;20366;-75
2022/01/07 06:40:04;;;;;;;;;;;52.10;2227.20;;;;;;4960409;28;19918;-74
2022/01/07 06:42:30;;;;;;;;;;;52.10;2227.20;;;;;;4963805;28;20318;-75
2022/01/07 06:44:56;;;;;;;;;;;76.90;2227.20;;;;;;4946568;28;19934;-75
2022/01/07 06:47:21;;;;;;;;;;;76.80;2227.20;;;;;;4965518;28;19957;-75
2022/01/07 06:49:47;;;;;;;;;;;52.10;2227.20;;;;;;4962913;28;19959;-75
2022/01/07 06:52:13;;;;;;;;;;;76.80;2227.20;;;;;;4955641;29;20629;-76
2022/01/07 06:54:38;;;;;;;;;;;76.90;2227.20;;;;;;4943158;28;20286;-75
2022/01/07 06:57:04;;;;;;;;;;;77.10;2227.20;;;;;;4966545;28;19906;-74
2022/01/07 06:59:29;;;;;;;;;;;77.20;2227.20;;;;;;4963668;28;19960;-75
2022/01/07 07:01:55;;;;;;;;;;;77.20;2227.20;;;;;;4948253;28;19914;-75
2022/01/07 07:04:21;;;;;;;;;;;77.30;2227.20;;;;;;4965939;28;19918;-74
2022/01/07 07:06:46;;;;;;;;;;;76.90;2227.20;;;;;;4963258;28;20347;-75
2022/01/07 07:09:12;;;;;;;;;;;77.10;2227.20;;;;;;4963863;28;20008;-75
2022/01/07 07:11:39;;;;;;;;;;;77.10;2227.20;;;;;;4963562;28;19906;-78
2022/01/07 07:14:05;;;;;;;;;;;77.10;2227.20;;;;;;4961198;28;20309;-77
2022/01/07 07:16:31;;;;;;;;;;;77.20;2227.20;;;;;;4957583;28;19906;-75
2022/01/07 07:18:56;;;;;;;;;;;77.30;2227.20;;;;;;4975064;28;19906;-76
2022/01/07 07:21:22;;;;;;;;;;;77.10;2227.20;;;;;;4974603;28;20370;-75
2022/01/07 07:23:48;;;;;;;;;;;77.10;2227.20;;;;;;4975024;28;19910;-80
2022/01/07 07:26:13;;;;;;;;;;;76.80;2227.20;;;;;;4975264;28;19906;-75
2022/01/07 07:28:39;;;;;;;;;;;76.80;2227.20;;;;;;4975100;28;20309;-79
2022/01/07 07:31:10;;;;;;;;;;;76.80;2227.20;;;;;;4957673;28;19906;-79
2022/01/07 07:36:47;;;;;;;;;;;77.20;2227.20;;;;;;4963601;28;19914;-75
2022/01/07 07:39:07;;;;;;;;;;;77.20;2227.20;;;;;;4964453;28;19921;-75
2022/01/07 07:41:33;;;;;;;;;;;77.10;2227.20;;;;;;4949854;28;19914;-75
2022/01/07 07:43:59;;;;;;;;;;;77.10;2227.20;;;;;;4966649;28;19906;-76
2022/01/07 07:46:25;;;;;;;;;;;77.30;2227.20;;;;;;4968456;28;19906;-77
2022/01/07 07:48:51;;;;;;;;;;;77.40;2227.20;;;;;;4965840;28;19910;-79
2022/01/07 07:51:17;;;;;;;;;;;77.40;2227.20;;;;;;4967716;28;19925;-76
2022/01/07 07:53:42;;;;;;;;;;;77.10;2227.20;;;;;;4969304;28;19910;-75
2022/01/07 07:56:10;;;;;;;;;;;77.10;2227.20;;;;;;4957333;28;19906;-75
2022/01/07 07:58:36;;;;;;;;;;;77.20;2227.20;;;;;;4961080;28;19906;-75
2022/01/07 08:01:02;;;;;;;;;;;77.20;2227.20;;;;;;4959114;29;19914;-75
2022/01/07 08:03:28;;;;;;;;;;;77.40;2227.20;;;;;;4958819;29;19913;-78
2022/01/07 08:05:53;;;;;;;;;;;77.20;2227.20;;;;;;4961245;28;19917;-76
2022/01/07 08:08:19;;;;;;;;;;;77.20;2227.20;;;;;;4968937;28;20442;-75
2022/01/07 08:10:48;;;;;;;;;;;77.10;2227.20;;;;;;4967520;28;19921;-76
2022/01/07 08:15:58;;;;;;;;;;;77.30;2227.20;;;;;;4958085;28;19910;-76
2022/01/07 08:18:27;;;;;;;;;;;77.30;2227.20;;;;;;4958510;29;20045;-75
2022/01/07 08:21:06;;;;;;;;;;;77.50;2227.20;;;;;;4940781;29;19941;-75
2022/01/07 08:23:32;;;;;;;;;;;77.40;2227.20;;;;;;4958360;29;20001;-76
2022/01/07 08:25:58;;;;;;;;;;;77.30;2227.20;;;;;;4958370;29;19907;-76
2022/01/07 08:28:27;;;;;;;;;;;77.40;2227.20;;;;;;4958129;29;19906;-75
2022/01/07 08:36:23;;;;;;;;;;;77.50;2227.20;;;;;;4958071;29;19914;-75
2022/01/07 08:38:49;;;;;;;;;;;77.70;2227.20;;;;;;4956223;29;19929;-75
2022/01/07 08:41:15;;;;;;;;;;;77.50;2227.20;;;;;;4938746;29;19918;-75
2022/01/07 08:43:40;;;;;;;;;;;77.60;2227.20;;;;;;4938334;29;19938;-74
2022/01/07 08:46:07;;;;;;;;;;;77.70;2227.20;;;;;;4938901;29;19914;-76
2022/01/07 08:48:33;;;;;;;;;;;77.70;2227.20;;;;;;4938358;29;20576;-75
2022/01/07 08:50:58;;;;;;;;;;;77.70;2227.20;;;;;;4937869;29;19990;-75
2022/01/07 08:53:24;;;;;;;;;;;102.40;2227.20;;;;;;4938529;29;20006;-75
2022/01/07 08:55:50;;;;;;;;;;;102.50;2227.20;;;;;;4940692;29;19968;-75
2022/01/07 08:58:16;;;;;;;;;;;102.50;2227.20;;;;;;4946559;29;19929;-76
2022/01/07 09:00:42;;;;;;;;;;;102.60;2227.20;;;;;;4947718;29;19915;-75
2022/01/07 09:03:07;;;;;;;;;;;102.60;2227.20;;;;;;4948301;29;20501;-76
2022/01/07 09:05:33;;;;;;;;;;;102.70;2227.20;;;;;;4946256;29;20001;-75
2022/01/07 09:07:59;;;;;;;;;;;102.80;2227.20;;;;;;4945360;29;19915;-77
2022/01/07 09:10:24;;;;;;;;;;;102.70;2227.20;;;;;;4948418;29;19906;-75
2022/01/07 09:12:50;;;;;;;;;;;102.80;2227.20;;;;;;4947122;29;20058;-74
2022/01/07 09:15:16;;;;;;;;;;;102.50;2227.20;;;;;;4939239;29;19937;-78
2022/01/07 09:17:42;;;;;;;;;;;102.80;2227.20;;;;;;4945884;29;19950;-76
2022/01/07 09:20:08;;;;;;;;;;;102.60;2227.20;;;;;;4937232;28;20060;-79
2022/01/07 09:22:35;;;;;;;;;;;102.50;2227.20;;;;;;4935222;29;19910;-76
2022/01/07 09:25:00;;;;;;;;;;;77.70;2227.20;;;;;;4938657;29;19917;-75
2022/01/07 09:27:26;;;;;;;;;;;77.70;2227.20;;;;;;4954521;29;19906;-78
2022/01/07 09:29:52;;;;;;;;;;;102.40;2227.20;;;;;;4939696;29;19906;-76
2022/01/07 09:32:17;;;;;;;;;;;77.70;2227.20;;;;;;4957024;29;20359;-76
2022/01/07 09:34:43;;;;;;;;;;;102.70;2227.20;;;;;;4945509;29;19919;-76
2022/01/07 09:37:09;;;;;;;;;;;103.00;2227.20;;;;;;4948652;29;19913;-76
2022/01/07 09:39:36;;;;;;;;;;;103.20;2227.20;;;;;;4955021;28;19992;-76
2022/01/07 09:42:05;;;;;;;;;;;103.30;2227.20;;;;;;4966825;28;19922;-75
2022/01/07 09:44:35;;;;;;;;;;;128.20;2252.80;;;;;;4964437;28;20275;-77
2022/01/07 09:47:00;;;;;;;;;;;128.30;2252.80;;;;;;4962537;28;20386;-76
2022/01/07 09:49:27;;;;;;;;;;;128.30;2252.80;;;;;;4963331;28;19911;-75
2022/01/07 09:51:52;;;;;;;;;;;103.30;2227.20;;;;;;4965033;28;19910;-74
2022/01/07 09:54:18;;;;;;;;;;;103.30;2227.20;;;;;;4964687;28;19929;-77
2022/01/07 09:56:44;;;;;;;;;;;103.10;2227.20;;;;;;4965764;28;19952;-74
2022/01/07 09:59:09;;;;;;;;;;;103.20;2227.20;;;;;;4968757;28;19966;-75
2022/01/07 10:01:54;;;;;;;;;;;128.10;2252.80;;;;;;4975457;28;19914;-75
2022/01/07 10:04:26;;;;;;;;;;;128.70;2252.80;;;;;;4975372;28;20494;-75
2022/01/07 10:07:11;;;;;;;;;;;153.80;2252.80;;;;;;4972723;28;19914;-76
2022/01/07 10:09:41;;;;;;;;;;;154.00;2252.80;;;;;;4966274;28;19917;-75
2022/01/07 10:12:07;;;;;;;;;;;154.10;2252.80;;;;;;4962966;28;19933;-75
2022/01/07 10:14:33;;;;;;;;;;;154.30;2227.20;;;;;;4962038;28;19914;-76
2022/01/07 10:17:01;;;;;;;;;;;154.30;2201.60;;;;;;4966342;28;19910;-76
2022/01/07 10:19:29;;;;;;;;;;;154.50;2176.00;;;;;;4948496;28;19918;-75
2022/01/07 10:21:59;;;;;;;;;;;154.50;2124.80;;;;;;4963352;28;19922;-75
2022/01/07 10:24:25;;;;;;;;;;;154.40;2150.40;;;;;;4964155;28;19907;-74
2022/01/07 10:27:10;;;;;;;;;;;179.40;2124.80;;;;;;4948415;28;19906;-74
2022/01/07 10:29:42;;;;;;;;;;;179.50;2099.20;;;;;;4965204;28;20382;-77
2022/01/07 10:32:24;;;;;;;;;;;179.60;2073.60;;;;;;4958114;28;19906;-74
2022/01/07 10:35:06;;;;;;;;;;;179.70;2099.20;;;;;;4974196;28;19921;-75
2022/01/07 10:37:31;;;;;;;;;;;179.90;2073.60;;;;;;4953312;28;19906;-75
2022/01/07 10:39:57;;;;;;;;;;;180.00;2048.00;;;;;;4971435;28;19966;-75
2022/01/07 10:42:23;;;;;;;;;;;180.10;2022.40;;;;;;4962604;28;19965;-75
2022/01/07 10:45:02;;;;;;;;;;;204.80;1996.80;;;;;;4974690;28;20377;-74
2022/01/07 10:47:28;;;;;;;;;;;205.00;1996.80;;;;;;4974826;28;19914;-75
2022/01/07 10:50:13;;;;;;;;;;;204.90;1971.20;;;;;;4974773;28;19910;-74
2022/01/07 10:52:39;;;;;;;;;;;205.10;1971.20;;;;;;4974816;28;19925;-75
2022/01/07 10:55:12;;;;;;;;;;;205.00;1996.80;;;;;;4976948;28;19910;-76
2022/01/07 10:57:43;;;;;;;;;;;205.20;1945.60;;;;;;4980116;28;19910;-76
2022/01/07 11:00:14;;;;;;;;;;;205.00;1971.20;;;;;;4975942;28;19910;-75
2022/01/07 11:02:40;;;;;;;;;;;205.00;1971.20;;;;;;4974157;28;20563;-76
2022/01/07 11:05:06;;;;;;;;;;;205.30;1945.60;;;;;;4981732;28;19913;-77
2022/01/07 11:07:32;;;;;;;;;;;205.50;1920.00;;;;;;4974012;28;20348;-75
2022/01/07 11:09:57;;;;;;;;;;;205.50;1894.40;;;;;;4979290;28;19968;-77
2022/01/07 11:12:25;;;;;;;;;;;205.70;1894.40;;;;;;4979991;28;19910;-75
2022/01/07 11:14:50;;;;;;;;;;;205.70;1868.80;;;;;;4978701;28;20354;-75
2022/01/07 11:17:21;;;;;;;;;;;205.70;1868.80;;;;;;4990687;28;19912;-75
2022/01/07 11:19:59;;;;;;;;;;;205.70;1843.20;;;;;;4990449;28;20362;-75
2022/01/07 11:22:25;;;;;;;;;;;205.70;1843.20;;;;;;4973805;28;19926;-76
2022/01/07 11:25:03;;;;;;;;;;;205.00;1971.20;;;;;;4980503;28;19917;-75
2022/01/07 11:27:29;;;;;;;;;;;205.20;1945.60;;;;;;4978583;28;19906;-77
2022/01/07 11:30:04;;;;;;;;;;;205.40;1920.00;;;;;;4978459;28;19906;-75
2022/01/07 11:32:37;;;;;;;;;;;205.60;1868.80;;;;;;4977373;28;20370;-77
2022/01/07 11:35:21;;;;;;;;;;;205.70;1868.80;;;;;;4978640;28;20329;-75
2022/01/07 11:37:48;;;;;;;;;;;205.70;1843.20;;;;;;4978766;28;19906;-75
2022/01/07 11:40:28;;;;;;;;;;;205.60;1868.80;;;;;;4978245;28;19928;-75
2022/01/07 11:42:54;;;;;;;;;;;205.60;1894.40;;;;;;4978598;28;19953;-75
2022/01/07 11:45:29;;;;;;;;;;;205.50;1894.40;;;;;;4977290;28;19921;-75
2022/01/07 11:47:58;;;;;;;;;;;205.00;1971.20;;;;;;4978182;28;19906;-75
2022/01/07 11:50:24;;;;;;;;;;;205.20;1920.00;;;;;;4978060;28;19952;-74
2022/01/07 11:52:58;;;;;;;;;;;205.30;1868.80;;;;;;4978316;28;19922;-77
2022/01/07 11:55:31;;;;;;;;;;;205.50;1868.80;;;;;;4978535;28;19906;-77
2022/01/07 11:58:03;;;;;;;;;;;205.20;1945.60;;;;;;4978376;28;19949;-77
2022/01/07 12:00:47;;;;;;;;;;;205.20;1894.40;;;;;;4977484;28;20357;-75
2022/01/07 12:03:13;;;;;;;;;;;205.30;1894.40;;;;;;4958424;28;20310;-76
2022/01/07 12:05:38;;;;;;;;;;;180.10;1971.20;;;;;;4968276;28;19910;-75
2022/01/07 12:08:04;;;;;;;;;;;204.80;1945.60;;;;;;4982614;28;19913;-77
2022/01/07 12:10:30;;;;;;;;;;;205.10;1945.60;;;;;;4989592;28;19920;-74
2022/01/07 12:13:00;;;;;;;;;;;205.20;1894.40;;;;;;4977497;28;19952;-76
2022/01/07 12:15:26;;;;;;;;;;;205.00;1843.20;;;;;;4988557;28;20004;-75
2022/01/07 12:17:52;;;;;;;;;;;205.10;1817.60;;;;;;4972713;28;19914;-76
2022/01/07 12:20:37;;;;;;;;;;;205.00;1817.60;;;;;;4967543;28;19918;-74
2022/01/07 12:23:02;;;;;;;;;;;180.10;1868.80;;;;;;4979421;28;20009;-77
2022/01/07 12:25:28;;;;;;;;;;;204.90;1792.00;;;;;;4976935;28;20008;-76
2022/01/07 12:28:01;;;;;;;;;;;205.00;1792.00;;;;;;4976669;28;20255;-76
2022/01/07 12:30:27;;;;;;;;;;;204.80;1817.60;;;;;;4977435;28;19906;-74
2022/01/07 12:32:58;;;;;;;;;;;204.80;1843.20;;;;;;4977554;28;19922;-75
2022/01/07 12:35:28;;;;;;;;;;;204.80;1843.20;;;;;;4977344;28;20282;-76
2022/01/07 12:37:54;;;;;;;;;;;204.80;1843.20;;;;;;4977542;28;19914;-74
2022/01/07 12:40:19;;;;;;;;;;;180.10;1843.20;;;;;;4977316;28;19918;-76
2022/01/07 12:42:45;;;;;;;;;;;180.10;1843.20;;;;;;4977251;28;19930;-76
2022/01/07 12:45:20;;;;;;;;;;;180.10;1843.20;;;;;;4976876;28;19967;-76
2022/01/07 12:47:46;;;;;;;;;;;180.10;1817.60;;;;;;4977052;28;19956;-74
2022/01/07 12:50:11;;;;;;;;;;;180.10;1792.00;;;;;;4977070;28;19945;-76
2022/01/07 12:52:41;;;;;;;;;;;180.10;1792.00;;;;;;4977061;28;19921;-75
2022/01/07 12:55:16;;;;;;;;;;;180.00;1817.60;;;;;;4977254;28;20285;-77
2022/01/07 12:57:44;;;;;;;;;;;180.00;1817.60;;;;;;4977017;28;19944;-74
2022/01/07 13:00:10;;;;;;;;;;;179.80;1817.60;;;;;;4976937;28;20351;-75
2022/01/07 13:02:36;;;;;;;;;;;179.70;1817.60;;;;;;4976911;28;19957;-75
2022/01/07 13:05:11;;;;;;;;;;;179.70;1843.20;;;;;;4975154;28;20001;-74
2022/01/07 13:07:56;;;;;;;;;;;179.50;1868.80;;;;;;4976746;28;19932;-75
2022/01/07 13:10:26;;;;;;;;;;;179.60;1920.00;;;;;;4976573;28;19945;-74
2022/01/07 13:12:59;;;;;;;;;;;179.70;1868.80;;;;;;4976115;28;19906;-76
2022/01/07 13:15:46;;;;;;;;;;;179.50;1894.40;;;;;;4963126;28;20322;-75
2022/01/07 13:18:15;;;;;;;;;;;179.70;1868.80;;;;;;4957354;29;20410;-73
2022/01/07 13:20:41;;;;;;;;;;;179.90;1843.20;;;;;;4957042;29;19926;-75
2022/01/07 13:23:06;;;;;;;;;;;179.70;1868.80;;;;;;4973893;28;19914;-76
2022/01/07 13:25:32;;;;;;;;;;;179.70;1843.20;;;;;;4959029;28;20339;-76
2022/01/07 13:27:58;;;;;;;;;;;179.80;1843.20;;;;;;4976362;28;20005;-76
2022/01/07 13:30:37;;;;;;;;;;;179.70;1817.60;;;;;;4976342;28;19924;-74
2022/01/07 13:33:09;;;;;;;;;;;179.70;1817.60;;;;;;4976376;28;20013;-77
2022/01/07 13:35:36;;;;;;;;;;;179.70;1817.60;;;;;;4975737;28;19985;-76
2022/01/07 13:38:03;;;;;;;;;;;179.70;1817.60;;;;;;4976280;28;19913;-75
2022/01/07 13:40:29;;;;;;;;;;;179.60;1817.60;;;;;;4986910;28;20290;-75
2022/01/07 13:43:25;;;;;;;;;;;179.40;1894.40;;;;;;4985697;28;20363;-72
2022/01/07 13:45:50;;;;;;;;;;;179.50;1920.00;;;;;;4943778;29;19910;-76
2022/01/07 13:48:16;;;;;;;;;;;154.50;1920.00;;;;;;4953271;29;20006;-75
2022/01/07 13:50:42;;;;;;;;;;;179.30;1945.60;;;;;;4952913;29;19910;-75
2022/01/07 13:53:17;;;;;;;;;;;179.50;1971.20;;;;;;4953854;29;19910;-74
2022/01/07 13:55:44;;;;;;;;;;;179.50;1971.20;;;;;;4943790;29;19910;-74